Time;durP1;ratioP1;P1;durP2;ratioP2;P2;SDS_P1;SDS_P2;PMS_P1;PMS_P2;Temp;Humidity;BMP_temperature;BMP_pressure;BME280_temperature;BME280_humidity;BME280_pressure;Samples;Min_cycle;Max_cycle;Signal;HPM_P1;HPM_P2
2023/06/08 00:02:26;;;;;;;3.03;1.48;;;;;;;;;;5014220;28;20021;-76
2023/06/08 00:04:52;;;;;;;2.00;1.48;;;;;;;;;;5013080;28;20021;-76
2023/06/08 00:07:18;;;;;;;2.10;1.48;;;;;;;;;;5011199;28;20025;-76
2023/06/08 00:09:45;;;;;;;2.78;1.73;;;;;;;;;;5012782;28;20119;-76
2023/06/08 00:12:11;;;;;;;2.38;1.95;;;;;;;;;;5008046;28;20120;-76
2023/06/08 00:14:37;;;;;;;6.05;1.60;;;;;;;;;;5010404;28;20500;-76
2023/06/08 00:17:04;;;;;;;1.98;1.50;;;;;;;;;;5020103;28;20079;-75
2023/06/08 00:19:35;;;;;;;1.90;1.35;;;;;;;;;;5026441;28;20599;-76
2023/06/08 00:22:05;;;;;;;1.48;1.38;;;;;;;;;;5026762;28;20029;-76
2023/06/08 00:24:34;;;;;;;1.67;1.38;;;;;;;;;;5014380;28;20036;-77
2023/06/08 00:27:00;;;;;;;2.97;1.20;;;;;;;;;;5009189;28;20037;-76
2023/06/08 00:29:26;;;;;;;2.17;1.42;;;;;;;;;;5021699;28;20029;-77
2023/06/08 00:31:52;;;;;;;2.08;1.35;;;;;;;;;;5023768;28;20028;-76
2023/06/08 00:34:18;;;;;;;2.33;1.75;;;;;;;;;;5021520;28;20495;-76
2023/06/08 00:36:45;;;;;;;1.20;1.10;;;;;;;;;;5027350;28;20033;-76
2023/06/08 00:39:11;;;;;;;2.22;1.33;;;;;;;;;;5024303;28;20034;-76
2023/06/08 00:41:37;;;;;;;1.58;1.40;;;;;;;;;;5021004;28;20125;-76
2023/06/08 00:44:05;;;;;;;1.52;1.23;;;;;;;;;;5022363;28;20025;-76
2023/06/08 00:46:31;;;;;;;1.85;1.45;;;;;;;;;;5017964;28;20118;-76
2023/06/08 00:48:57;;;;;;;2.83;1.42;;;;;;;;;;5023827;28;20292;-76
2023/06/08 00:51:24;;;;;;;2.50;1.60;;;;;;;;;;5018958;28;20080;-76
2023/06/08 00:53:50;;;;;;;1.42;1.33;;;;;;;;;;5013823;28;20025;-76
2023/06/08 00:56:16;;;;;;;1.52;1.20;;;;;;;;;;5022282;28;20045;-76
2023/06/08 00:58:47;;;;;;;1.33;1.23;;;;;;;;;;5026530;28;20037;-77
2023/06/08 01:01:19;;;;;;;1.50;1.40;;;;;;;;;;5030701;28;20091;-75
2023/06/08 01:03:47;;;;;;;1.40;1.15;;;;;;;;;;5027550;28;20030;-75
2023/06/08 01:06:16;;;;;;;1.27;1.10;;;;;;;;;;5022946;28;20045;-75
2023/06/08 01:08:48;;;;;;;2.08;1.58;;;;;;;;;;5019742;28;20036;-75
2023/06/08 01:11:33;;;;;;;1.75;1.23;;;;;;;;;;5016972;28;20029;-75
2023/06/08 01:14:17;;;;;;;1.88;1.30;;;;;;;;;;5022547;28;20033;-75
2023/06/08 01:16:51;;;;;;;1.95;1.60;;;;;;;;;;5024696;28;20035;-75
2023/06/08 01:19:28;;;;;;;2.63;1.10;;;;;;;;;;5023866;28;20079;-75
2023/06/08 01:22:00;;;;;;;1.65;1.13;;;;;;;;;;5016503;28;20022;-75
2023/06/08 01:24:30;;;;;;;1.25;1.15;;;;;;;;;;5019235;28;20018;-75
2023/06/08 01:26:59;;;;;;;1.48;1.20;;;;;;;;;;5016319;28;20021;-76
2023/06/08 01:29:33;;;;;;;1.98;1.30;;;;;;;;;;5010814;28;20040;-75
2023/06/08 01:31:59;;;;;;;1.25;1.08;;;;;;;;;;5006864;28;20815;-75
2023/06/08 01:34:25;;;;;;;1.55;1.15;;;;;;;;;;5009660;28;20033;-75
2023/06/08 01:37:10;;;;;;;1.35;1.13;;;;;;;;;;5006154;28;20032;-75
2023/06/08 01:39:48;;;;;;;1.38;1.25;;;;;;;;;;5008190;28;20037;-75
2023/06/08 01:42:15;;;;;;;1.13;1.02;;;;;;;;;;5016800;28;20021;-75
2023/06/08 01:44:45;;;;;;;1.73;1.30;;;;;;;;;;5017070;28;20087;-75
2023/06/08 01:47:14;;;;;;;1.83;1.02;;;;;;;;;;5018477;28;20029;-75
2023/06/08 01:49:41;;;;;;;1.48;1.13;;;;;;;;;;5013806;28;20030;-75
2023/06/08 01:52:07;;;;;;;2.65;1.40;;;;;;;;;;5018061;28;20037;-75
2023/06/08 01:54:33;;;;;;;1.30;1.02;;;;;;;;;;5025277;28;21052;-76
2023/06/08 01:56:59;;;;;;;1.77;1.02;;;;;;;;;;5012000;28;20035;-75
2023/06/08 01:59:25;;;;;;;1.50;1.23;;;;;;;;;;5026532;28;20385;-75
2023/06/08 02:01:51;;;;;;;2.08;1.45;;;;;;;;;;5026330;28;20377;-75
2023/06/08 02:04:17;;;;;;;2.15;1.50;;;;;;;;;;5023901;28;20977;-75
2023/06/08 02:06:43;;;;;;;1.55;1.20;;;;;;;;;;5016427;28;20036;-75
2023/06/08 02:09:09;;;;;;;2.17;1.40;;;;;;;;;;5022585;28;20112;-75
2023/06/08 02:11:35;;;;;;;1.13;1.08;;;;;;;;;;5023284;28;20033;-75
2023/06/08 02:14:01;;;;;;;1.35;1.10;;;;;;;;;;5019898;28;20029;-75
2023/06/08 02:16:27;;;;;;;1.35;1.13;;;;;;;;;;5023287;28;20063;-75
2023/06/08 02:18:53;;;;;;;1.40;1.23;;;;;;;;;;5011316;28;20076;-75
2023/06/08 02:21:19;;;;;;;2.17;1.20;;;;;;;;;;5023489;28;20037;-76
2023/06/08 02:23:45;;;;;;;1.65;1.00;;;;;;;;;;5027757;28;20496;-74
2023/06/08 02:26:11;;;;;;;1.55;1.15;;;;;;;;;;5016023;28;20030;-75
2023/06/08 02:28:37;;;;;;;1.75;1.27;;;;;;;;;;5016621;28;20052;-75
2023/06/08 02:31:03;;;;;;;2.65;1.70;;;;;;;;;;5009251;28;20116;-75
2023/06/08 02:33:29;;;;;;;2.75;1.27;;;;;;;;;;5014644;28;20484;-75
2023/06/08 02:35:55;;;;;;;1.92;1.40;;;;;;;;;;5021708;28;20033;-75
2023/06/08 02:38:21;;;;;;;1.33;1.20;;;;;;;;;;5016511;28;20022;-75
2023/06/08 02:40:47;;;;;;;1.70;1.40;;;;;;;;;;5022720;28;20495;-75
2023/06/08 02:43:14;;;;;;;1.60;1.30;;;;;;;;;;5018891;28;20503;-75
2023/06/08 02:45:41;;;;;;;2.13;1.23;;;;;;;;;;5024020;28;20022;-75
2023/06/08 02:48:07;;;;;;;1.55;1.13;;;;;;;;;;5025250;28;20119;-75
2023/06/08 02:50:33;;;;;;;1.52;1.30;;;;;;;;;;5009890;28;20030;-75
2023/06/08 02:52:59;;;;;;;1.70;1.10;;;;;;;;;;5015917;28;20511;-75
2023/06/08 02:55:25;;;;;;;1.75;1.33;;;;;;;;;;5011589;28;20029;-75
2023/06/08 02:57:52;;;;;;;1.45;1.08;;;;;;;;;;5000794;28;20056;-75
2023/06/08 03:00:20;;;;;;;1.33;1.23;;;;;;;;;;5025876;28;20044;-75
2023/06/08 03:02:46;;;;;;;1.63;1.30;;;;;;;;;;5013244;28;20571;-75
2023/06/08 03:05:13;;;;;;;1.67;0.98;;;;;;;;;;5022161;28;20026;-75
2023/06/08 03:07:42;;;;;;;1.48;1.23;;;;;;;;;;5023501;28;20033;-75
2023/06/08 03:10:08;;;;;;;2.40;1.50;;;;;;;;;;5019098;28;20030;-75
2023/06/08 03:12:34;;;;;;;2.42;1.67;;;;;;;;;;5019844;28;20104;-75
2023/06/08 03:15:00;;;;;;;2.05;1.13;;;;;;;;;;5004377;28;20507;-75
2023/06/08 03:17:27;;;;;;;2.28;1.45;;;;;;;;;;5022267;28;20034;-75
2023/06/08 03:19:53;;;;;;;1.92;1.35;;;;;;;;;;5020922;28;20041;-75
2023/06/08 03:22:24;;;;;;;1.10;1.00;;;;;;;;;;5027225;28;20044;-76
2023/06/08 03:24:50;;;;;;;2.47;1.40;;;;;;;;;;5025864;28;20469;-75
2023/06/08 03:27:16;;;;;;;1.80;1.60;;;;;;;;;;5015257;28;20034;-76
2023/06/08 03:29:42;;;;;;;1.40;1.13;;;;;;;;;;5020698;28;20052;-75
2023/06/08 03:32:09;;;;;;;2.03;1.20;;;;;;;;;;5016223;28;20541;-75
2023/06/08 03:34:37;;;;;;;1.88;1.02;;;;;;;;;;5032187;28;20594;-74
2023/06/08 03:37:03;;;;;;;1.20;1.10;;;;;;;;;;5016957;28;20022;-74
2023/06/08 03:39:29;;;;;;;1.73;1.02;;;;;;;;;;5011132;28;20026;-75
2023/06/08 03:41:55;;;;;;;1.60;1.30;;;;;;;;;;5012393;28;20101;-74
2023/06/08 03:44:21;;;;;;;2.10;1.20;;;;;;;;;;5018140;28;20492;-74
2023/06/08 03:46:47;;;;;;;1.52;1.42;;;;;;;;;;5019042;28;20038;-74
2023/06/08 03:49:13;;;;;;;1.30;1.17;;;;;;;;;;5018489;28;20045;-74
2023/06/08 03:51:39;;;;;;;1.70;1.23;;;;;;;;;;5032862;28;20033;-74
2023/06/08 03:54:05;;;;;;;1.52;1.33;;;;;;;;;;5030724;28;20041;-73
2023/06/08 03:56:32;;;;;;;1.80;1.27;;;;;;;;;;5025314;28;20026;-74
2023/06/08 03:58:58;;;;;;;2.67;1.10;;;;;;;;;;5016238;28;20113;-74
2023/06/08 04:01:24;;;;;;;1.63;1.20;;;;;;;;;;5022642;28;20071;-74
2023/06/08 04:03:51;;;;;;;1.27;1.13;;;;;;;;;;5022412;28;20021;-74
2023/06/08 04:06:18;;;;;;;2.20;1.60;;;;;;;;;;5032320;28;20374;-74
2023/06/08 04:08:44;;;;;;;1.23;1.05;;;;;;;;;;5020111;28;20085;-75
2023/06/08 04:11:11;;;;;;;1.40;1.15;;;;;;;;;;5023198;28;20029;-75
2023/06/08 04:13:38;;;;;;;1.77;1.13;;;;;;;;;;5018936;28;20060;-74
2023/06/08 04:16:08;;;;;;;1.83;1.25;;;;;;;;;;5009624;28;20057;-75
2023/06/08 04:18:34;;;;;;;2.28;1.13;;;;;;;;;;5019401;28;20054;-74
2023/06/08 04:21:00;;;;;;;1.73;1.30;;;;;;;;;;5020267;28;20056;-79
2023/06/08 04:23:27;;;;;;;1.70;1.40;;;;;;;;;;5029709;28;20025;-75
2023/06/08 04:25:53;;;;;;;3.17;1.65;;;;;;;;;;5025233;28;20175;-76
2023/06/08 04:28:21;;;;;;;2.05;1.50;;;;;;;;;;5022407;28;20033;-74
2023/06/08 04:30:48;;;;;;;1.77;1.40;;;;;;;;;;5025857;28;20033;-75
2023/06/08 04:33:14;;;;;;;2.58;1.42;;;;;;;;;;5029478;28;20041;-75
2023/06/08 04:35:41;;;;;;;2.10;1.45;;;;;;;;;;5015402;28;20406;-76
2023/06/08 04:38:12;;;;;;;2.40;1.40;;;;;;;;;;5015722;28;20052;-75
2023/06/08 04:40:38;;;;;;;1.92;1.50;;;;;;;;;;5021555;28;20029;-77
2023/06/08 04:43:04;;;;;;;2.38;1.80;;;;;;;;;;5018459;28;20030;-76
2023/06/08 04:45:33;;;;;;;1.60;1.45;;;;;;;;;;5019368;28;20645;-76
2023/06/08 04:47:59;;;;;;;2.75;1.75;;;;;;;;;;5022559;28;20113;-75
2023/06/08 04:50:24;;;;;;;2.60;1.65;;;;;;;;;;5027421;28;20045;-75
2023/06/08 04:52:52;;;;;;;3.33;1.77;;;;;;;;;;5029720;28;20029;-75
2023/06/08 04:55:19;;;;;;;1.90;1.67;;;;;;;;;;5022337;28;20049;-76
2023/06/08 04:57:45;;;;;;;1.95;1.55;;;;;;;;;;5021409;28;20025;-76
2023/06/08 05:00:12;;;;;;;4.15;1.80;;;;;;;;;;5014154;28;20048;-76
2023/06/08 05:02:38;;;;;;;6.05;1.73;;;;;;;;;;5024093;28;20037;-79
2023/06/08 05:05:05;;;;;;;2.20;1.58;;;;;;;;;;5021362;28;20018;-75
2023/06/08 05:07:34;;;;;;;4.93;2.42;;;;;;;;;;5026608;28;21666;-76
2023/06/08 05:10:01;;;;;;;2.33;1.45;;;;;;;;;;5018409;28;20468;-76
2023/06/08 05:12:27;;;;;;;3.25;1.48;;;;;;;;;;5020220;28;20120;-76
2023/06/08 05:14:54;;;;;;;2.70;1.75;;;;;;;;;;5017071;28;20072;-76
2023/06/08 05:17:21;;;;;;;3.42;1.65;;;;;;;;;;5022107;28;20034;-76
2023/06/08 05:19:47;;;;;;;2.67;1.48;;;;;;;;;;5006967;28;20053;-76
2023/06/08 05:22:16;;;;;;;7.75;2.25;;;;;;;;;;5023427;28;20387;-79
2023/06/08 05:24:42;;;;;;;2.17;1.45;;;;;;;;;;5025769;28;20108;-75
2023/06/08 05:27:08;;;;;;;3.75;1.60;;;;;;;;;;5022745;28;20117;-75
2023/06/08 05:29:34;;;;;;;1.92;1.60;;;;;;;;;;5020156;28;20381;-75
2023/06/08 05:32:00;;;;;;;4.00;1.98;;;;;;;;;;5020079;28;20022;-80
2023/06/08 05:34:27;;;;;;;3.72;2.28;;;;;;;;;;5018851;28;20411;-76
2023/06/08 05:36:53;;;;;;;1.98;1.40;;;;;;;;;;5017316;28;20472;-77
2023/06/08 05:39:19;;;;;;;2.22;1.50;;;;;;;;;;5017067;28;20036;-76
2023/06/08 05:41:45;;;;;;;3.17;1.75;;;;;;;;;;5021558;28;20029;-77
2023/06/08 05:44:11;;;;;;;5.43;1.48;;;;;;;;;;5021318;28;20033;-77
2023/06/08 05:46:37;;;;;;;2.03;1.55;;;;;;;;;;5016952;28;20026;-75
2023/06/08 05:49:03;;;;;;;1.92;1.40;;;;;;;;;;5026632;28;20017;-77
2023/06/08 05:51:29;;;;;;;2.65;1.95;;;;;;;;;;5022506;28;20104;-75
2023/06/08 05:53:55;;;;;;;1.92;1.40;;;;;;;;;;5019315;28;20396;-75
2023/06/08 05:56:21;;;;;;;4.90;1.80;;;;;;;;;;5021423;28;20028;-75
2023/06/08 05:58:47;;;;;;;2.60;1.67;;;;;;;;;;5021780;28;20033;-78
2023/06/08 06:01:13;;;;;;;2.85;1.95;;;;;;;;;;5017987;28;20087;-78
2023/06/08 06:03:40;;;;;;;3.17;1.75;;;;;;;;;;5020225;28;20013;-78
2023/06/08 06:06:06;;;;;;;2.05;1.52;;;;;;;;;;5020884;28;20060;-77
2023/06/08 06:08:32;;;;;;;2.38;1.58;;;;;;;;;;5016744;28;20022;-78
2023/06/08 06:10:58;;;;;;;4.43;1.80;;;;;;;;;;5024104;28;20024;-78
2023/06/08 06:13:26;;;;;;;2.53;1.58;;;;;;;;;;5022658;28;20047;-78
2023/06/08 06:15:52;;;;;;;2.42;1.38;;;;;;;;;;5016424;28;20030;-78
2023/06/08 06:18:18;;;;;;;1.52;1.20;;;;;;;;;;5017288;28;20037;-78
2023/06/08 06:20:44;;;;;;;2.50;1.50;;;;;;;;;;5023530;28;20492;-78
2023/06/08 06:23:10;;;;;;;3.20;1.55;;;;;;;;;;5020769;28;20031;-79
2023/06/08 06:25:36;;;;;;;3.95;1.88;;;;;;;;;;5018715;28;20025;-78
2023/06/08 06:28:03;;;;;;;2.08;1.83;;;;;;;;;;5014292;28;20030;-78
2023/06/08 06:30:29;;;;;;;3.72;1.80;;;;;;;;;;5019917;28;20101;-78
2023/06/08 06:32:54;;;;;;;7.05;1.65;;;;;;;;;;5012383;28;20037;-79
2023/06/08 06:35:20;;;;;;;2.00;1.40;;;;;;;;;;5012432;28;20045;-78
2023/06/08 06:37:46;;;;;;;5.40;1.88;;;;;;;;;;5019822;28;20569;-79
2023/06/08 06:40:12;;;;;;;1.75;1.30;;;;;;;;;;5020363;28;20033;-78
2023/06/08 06:42:39;;;;;;;1.85;1.58;;;;;;;;;;5026326;28;20026;-80
2023/06/08 06:45:05;;;;;;;6.18;1.50;;;;;;;;;;5019821;28;20511;-79
2023/06/08 06:47:31;;;;;;;2.20;1.65;;;;;;;;;;5008395;28;20033;-79
2023/06/08 06:49:57;;;;;;;2.10;1.60;;;;;;;;;;5009199;28;20559;-79
2023/06/08 06:52:23;;;;;;;2.22;1.50;;;;;;;;;;5023339;28;20076;-79
2023/06/08 06:54:49;;;;;;;2.08;1.48;;;;;;;;;;5017146;28;20083;-79
2023/06/08 06:57:15;;;;;;;1.77;1.42;;;;;;;;;;5027525;28;20224;-79
2023/06/08 06:59:42;;;;;;;6.38;1.80;;;;;;;;;;5023634;28;20156;-79
2023/06/08 07:02:08;;;;;;;2.83;1.83;;;;;;;;;;5014591;28;20029;-79
2023/06/08 07:04:34;;;;;;;2.90;1.63;;;;;;;;;;5013783;28;20021;-79
2023/06/08 07:07:01;;;;;;;4.40;1.40;;;;;;;;;;5018425;28;20018;-80
2023/06/08 07:09:27;;;;;;;2.15;1.60;;;;;;;;;;5017519;28;20026;-79
2023/06/08 07:11:53;;;;;;;2.22;1.60;;;;;;;;;;5020760;28;20420;-79
2023/06/08 07:14:19;;;;;;;1.65;1.27;;;;;;;;;;5025911;28;20021;-79
2023/06/08 07:16:45;;;;;;;2.30;1.63;;;;;;;;;;5017328;28;20384;-79
2023/06/08 07:19:11;;;;;;;1.73;1.55;;;;;;;;;;5026042;28;20037;-79
2023/06/08 07:21:39;;;;;;;2.70;1.42;;;;;;;;;;5028273;28;20045;-79
2023/06/08 07:24:05;;;;;;;2.75;1.65;;;;;;;;;;5031668;28;20539;-79
2023/06/08 07:26:31;;;;;;;2.95;1.55;;;;;;;;;;5018691;28;20142;-78
2023/06/08 07:29:01;;;;;;;1.70;1.23;;;;;;;;;;5017208;28;20547;-78
2023/06/08 07:31:27;;;;;;;2.90;1.58;;;;;;;;;;5023353;28;20053;-80
2023/06/08 07:33:53;;;;;;;2.60;1.70;;;;;;;;;;5015288;28;20030;-79
2023/06/08 07:36:20;;;;;;;1.88;1.50;;;;;;;;;;5026285;28;20033;-79
2023/06/08 07:38:50;;;;;;;2.83;1.58;;;;;;;;;;5028244;28;20029;-79
2023/06/08 07:41:16;;;;;;;3.17;1.85;;;;;;;;;;5019319;28;20472;-79
2023/06/08 07:43:42;;;;;;;2.67;1.95;;;;;;;;;;5024764;28;20036;-79
2023/06/08 07:46:08;;;;;;;5.90;1.55;;;;;;;;;;5010940;28;20496;-79
2023/06/08 07:48:34;;;;;;;2.50;1.58;;;;;;;;;;5012743;28;20495;-79
2023/06/08 07:51:00;;;;;;;2.50;1.58;;;;;;;;;;5023415;28;20048;-79
2023/06/08 07:53:26;;;;;;;3.97;1.95;;;;;;;;;;5022328;28;20053;-79
2023/06/08 07:55:52;;;;;;;3.78;2.13;;;;;;;;;;5020403;28;20029;-79
2023/06/08 07:58:18;;;;;;;1.90;1.45;;;;;;;;;;5021536;28;20400;-80
2023/06/08 08:00:44;;;;;;;2.17;1.65;;;;;;;;;;5025384;28;20474;-79
2023/06/08 08:03:10;;;;;;;4.95;1.60;;;;;;;;;;5014553;28;20399;-79
2023/06/08 08:05:36;;;;;;;2.30;1.50;;;;;;;;;;5028049;28;20022;-79
2023/06/08 08:08:02;;;;;;;2.75;1.73;;;;;;;;;;5027561;28;20083;-79
2023/06/08 08:10:28;;;;;;;2.85;1.77;;;;;;;;;;5018479;28;20492;-79
2023/06/08 08:12:54;;;;;;;3.10;1.80;;;;;;;;;;5022500;28;20029;-79
2023/06/08 08:15:21;;;;;;;3.00;1.73;;;;;;;;;;5025415;28;20087;-79
2023/06/08 08:17:47;;;;;;;2.28;1.52;;;;;;;;;;5027906;28;20040;-79
2023/06/08 08:20:13;;;;;;;2.92;2.08;;;;;;;;;;5023177;28;20045;-79
2023/06/08 08:22:39;;;;;;;3.05;1.50;;;;;;;;;;5016776;28;20033;-79
2023/06/08 08:25:05;;;;;;;2.28;1.73;;;;;;;;;;5022121;28;20091;-80
2023/06/08 08:27:31;;;;;;;2.00;1.40;;;;;;;;;;5017775;28;20029;-79
2023/06/08 08:29:57;;;;;;;2.30;1.80;;;;;;;;;;5010188;28;20136;-79
2023/06/08 08:32:23;;;;;;;3.55;1.95;;;;;;;;;;5024047;28;20492;-79
2023/06/08 08:34:50;;;;;;;2.08;1.48;;;;;;;;;;5028424;28;20566;-79
2023/06/08 08:37:17;;;;;;;2.85;2.00;;;;;;;;;;5030221;28;20026;-79
2023/06/08 08:39:43;;;;;;;2.58;1.70;;;;;;;;;;5030098;28;20017;-78
2023/06/08 08:42:11;;;;;;;2.15;1.80;;;;;;;;;;5027623;28;20026;-79
2023/06/08 08:44:38;;;;;;;2.05;1.60;;;;;;;;;;5020037;28;20033;-78
2023/06/08 08:47:06;;;;;;;1.77;1.40;;;;;;;;;;5015781;28;20032;-79
2023/06/08 08:49:36;;;;;;;1.80;1.60;;;;;;;;;;5012251;28;20037;-78
2023/06/08 08:52:02;;;;;;;1.75;1.38;;;;;;;;;;5010225;28;20088;-79
2023/06/08 08:54:33;;;;;;;2.47;1.80;;;;;;;;;;5027287;28;20392;-78
2023/06/08 08:56:59;;;;;;;1.75;1.40;;;;;;;;;;5029932;28;20036;-79
2023/06/08 08:59:28;;;;;;;2.70;1.88;;;;;;;;;;5021594;28;20038;-80
2023/06/08 09:01:54;;;;;;;2.30;1.70;;;;;;;;;;5026739;28;20119;-79
2023/06/08 09:04:20;;;;;;;2.55;1.75;;;;;;;;;;5029722;28;20512;-79
2023/06/08 09:06:49;;;;;;;2.55;2.08;;;;;;;;;;5029669;28;20037;-79
2023/06/08 09:09:15;;;;;;;1.95;1.50;;;;;;;;;;5028080;28;20024;-78
2023/06/08 09:12:05;;;;;;;3.35;1.80;;;;;;;;;;5024400;28;20033;-78
2023/06/08 09:14:31;;;;;;;2.65;1.65;;;;;;;;;;5022225;28;20043;-79
2023/06/08 09:17:01;;;;;;;4.85;2.10;;;;;;;;;;5024401;28;20025;-79
2023/06/08 09:19:28;;;;;;;3.25;1.83;;;;;;;;;;5029174;28;20160;-80
2023/06/08 09:21:55;;;;;;;3.00;1.77;;;;;;;;;;5019187;28;20270;-79
2023/06/08 09:24:22;;;;;;;2.75;1.80;;;;;;;;;;5009825;28;20026;-79
2023/06/08 09:26:56;;;;;;;5.45;1.52;;;;;;;;;;5012320;28;20037;-78
2023/06/08 09:29:40;;;;;;;2.63;1.55;;;;;;;;;;5016904;28;20055;-79
2023/06/08 09:32:07;;;;;;;2.95;1.88;;;;;;;;;;5024108;28;20040;-79
2023/06/08 09:34:34;;;;;;;2.20;1.90;;;;;;;;;;5019707;28;20105;-77
2023/06/08 09:37:06;;;;;;;1.95;1.50;;;;;;;;;;5021857;28;20036;-78
2023/06/08 09:39:39;;;;;;;2.33;1.55;;;;;;;;;;5012914;28;20381;-78
2023/06/08 09:42:06;;;;;;;2.90;1.73;;;;;;;;;;5013875;28;20041;-78
2023/06/08 09:44:32;;;;;;;2.50;1.92;;;;;;;;;;5028103;28;20030;-79
2023/06/08 09:46:58;;;;;;;2.33;2.03;;;;;;;;;;5023820;28;20033;-79
2023/06/08 09:49:24;;;;;;;4.45;1.90;;;;;;;;;;5020160;28;20033;-78
2023/06/08 09:51:53;;;;;;;3.72;1.38;;;;;;;;;;5022298;28;20021;-79
2023/06/08 09:54:20;;;;;;;1.98;1.50;;;;;;;;;;5024535;28;20037;-78
2023/06/08 09:56:50;;;;;;;2.53;1.70;;;;;;;;;;5026922;28;20033;-79
2023/06/08 09:59:17;;;;;;;2.30;1.40;;;;;;;;;;5026515;28;20120;-79
2023/06/08 10:01:45;;;;;;;3.35;1.63;;;;;;;;;;5013468;28;20057;-78
2023/06/08 10:04:20;;;;;;;2.17;1.42;;;;;;;;;;5022851;28;20025;-78
2023/06/08 10:06:47;;;;;;;2.05;1.35;;;;;;;;;;5025347;28;20025;-78
2023/06/08 10:09:15;;;;;;;2.25;1.50;;;;;;;;;;5025453;28;20103;-79
2023/06/08 10:11:41;;;;;;;2.45;1.73;;;;;;;;;;5018332;28;20033;-78
2023/06/08 10:14:09;;;;;;;2.33;1.85;;;;;;;;;;5016945;28;20030;-79
2023/06/08 10:16:36;;;;;;;3.10;1.65;;;;;;;;;;5009814;28;20040;-79
2023/06/08 10:19:02;;;;;;;2.22;1.67;;;;;;;;;;5028313;28;20103;-79
2023/06/08 10:21:29;;;;;;;2.30;1.80;;;;;;;;;;5023407;28;20490;-79
2023/06/08 10:23:56;;;;;;;2.80;1.88;;;;;;;;;;5014267;28;20103;-79
2023/06/08 10:26:23;;;;;;;3.47;2.00;;;;;;;;;;5009353;28;20156;-78
2023/06/08 10:29:08;;;;;;;2.33;1.88;;;;;;;;;;5008069;28;20033;-80
2023/06/08 10:31:36;;;;;;;3.03;1.63;;;;;;;;;;5013446;28;20034;-79
2023/06/08 10:34:06;;;;;;;1.52;1.35;;;;;;;;;;5025376;28;20536;-80
2023/06/08 10:36:39;;;;;;;2.00;1.60;;;;;;;;;;5013702;28;20032;-79
2023/06/08 10:39:16;;;;;;;2.50;1.55;;;;;;;;;;5010156;28;20029;-80
2023/06/08 10:41:42;;;;;;;3.45;1.75;;;;;;;;;;5014517;28;20030;-80
2023/06/08 10:44:40;;;;;;;2.35;1.75;;;;;;;;;;5022085;28;20025;-79
2023/06/08 10:47:09;;;;;;;2.42;1.70;;;;;;;;;;5009549;28;20065;-74
2023/06/08 10:49:36;;;;;;;2.22;1.75;;;;;;;;;;5020061;28;20022;-76
2023/06/08 10:52:06;;;;;;;2.17;1.80;;;;;;;;;;5019707;28;20034;-77
2023/06/08 10:54:46;;;;;;;3.08;1.80;;;;;;;;;;5027399;28;20091;-78
2023/06/08 10:57:12;;;;;;;3.17;1.77;;;;;;;;;;5032293;28;20523;-77
2023/06/08 10:59:38;;;;;;;1.60;1.50;;;;;;;;;;5031225;28;20036;-77
2023/06/08 11:02:07;;;;;;;2.05;1.83;;;;;;;;;;5013661;28;20520;-77
2023/06/08 11:04:34;;;;;;;2.03;1.60;;;;;;;;;;5017016;28;20115;-77
2023/06/08 11:07:03;;;;;;;1.90;1.70;;;;;;;;;;5030357;28;20033;-78
2023/06/08 11:09:31;;;;;;;2.25;1.50;;;;;;;;;;5024436;28;20034;-78
2023/06/08 11:11:57;;;;;;;2.45;1.52;;;;;;;;;;5017845;28;20037;-78
2023/06/08 11:14:23;;;;;;;2.67;1.88;;;;;;;;;;5015162;28;20034;-78
2023/06/08 11:16:53;;;;;;;2.28;1.73;;;;;;;;;;5021041;28;20021;-78
2023/06/08 11:19:19;;;;;;;2.55;1.90;;;;;;;;;;5025517;28;20433;-78
2023/06/08 11:21:46;;;;;;;3.10;2.00;;;;;;;;;;5029056;28;20026;-78
2023/06/08 11:24:15;;;;;;;3.35;1.95;;;;;;;;;;5019962;28;20557;-78
2023/06/08 11:26:41;;;;;;;2.25;1.48;;;;;;;;;;5025702;28;20040;-78
2023/06/08 11:29:07;;;;;;;2.13;1.50;;;;;;;;;;5016650;28;20424;-78
2023/06/08 11:31:40;;;;;;;2.85;1.50;;;;;;;;;;5019618;28;20513;-78
2023/06/08 11:34:06;;;;;;;2.05;1.77;;;;;;;;;;5016693;28;20569;-78
2023/06/08 11:36:32;;;;;;;2.80;1.90;;;;;;;;;;5026316;28;20062;-77
2023/06/08 11:38:58;;;;;;;2.13;1.75;;;;;;;;;;5027240;28;20025;-78
2023/06/08 11:41:24;;;;;;;1.58;1.33;;;;;;;;;;5026284;28;20033;-77
2023/06/08 11:43:50;;;;;;;2.50;1.58;;;;;;;;;;5025698;28;20021;-77
2023/06/08 11:46:18;;;;;;;2.10;1.30;;;;;;;;;;5017441;28;20029;-77
2023/06/08 11:48:44;;;;;;;3.13;1.85;;;;;;;;;;5014010;28;20029;-76
2023/06/08 11:51:10;;;;;;;1.58;1.45;;;;;;;;;;5023678;28;20033;-77
2023/06/08 11:53:36;;;;;;;2.65;1.60;;;;;;;;;;5024763;28;20079;-77
2023/06/08 11:56:03;;;;;;;1.98;1.50;;;;;;;;;;5023266;28;20125;-77
2023/06/08 11:58:30;;;;;;;1.90;1.60;;;;;;;;;;5022920;28;20029;-77
2023/06/08 12:01:09;;;;;;;4.18;1.75;;;;;;;;;;5014585;28;20026;-77
2023/06/08 12:03:42;;;;;;;2.25;1.50;;;;;;;;;;5017406;28;20041;-76
2023/06/08 12:06:08;;;;;;;8.15;1.73;;;;;;;;;;5018346;28;20030;-79
2023/06/08 12:08:35;;;;;;;4.32;1.98;;;;;;;;;;5021922;28;20582;-78
2023/06/08 12:11:08;;;;;;;1.90;1.63;;;;;;;;;;5010752;28;20033;-78
2023/06/08 12:13:34;;;;;;;2.45;1.70;;;;;;;;;;5011995;28;20381;-77
2023/06/08 12:16:01;;;;;;;3.10;1.70;;;;;;;;;;5019194;28;20498;-78
2023/06/08 12:18:26;;;;;;;2.15;1.80;;;;;;;;;;5010906;28;20119;-78
2023/06/08 12:20:53;;;;;;;2.40;1.80;;;;;;;;;;5010714;28;20591;-77
2023/06/08 12:23:19;;;;;;;2.30;1.70;;;;;;;;;;5011158;28;20014;-78
2023/06/08 12:25:45;;;;;;;2.65;1.60;;;;;;;;;;5017668;28;20061;-78
2023/06/08 12:28:23;;;;;;;3.88;1.70;;;;;;;;;;5028412;28;20060;-78
2023/06/08 12:30:50;;;;;;;2.00;1.73;;;;;;;;;;5024521;28;20024;-77
2023/06/08 12:33:20;;;;;;;2.60;1.83;;;;;;;;;;5018635;28;20038;-78
2023/06/08 12:35:49;;;;;;;1.63;1.50;;;;;;;;;;5009946;28;20048;-78
2023/06/08 12:38:16;;;;;;;1.60;1.50;;;;;;;;;;5030391;28;20029;-78
2023/06/08 12:40:47;;;;;;;2.08;1.52;;;;;;;;;;5026170;28;20025;-81
2023/06/08 12:43:16;;;;;;;3.75;2.03;;;;;;;;;;5022705;28;20034;-80
2023/06/08 12:45:42;;;;;;;2.63;1.67;;;;;;;;;;5025645;28;20093;-80
2023/06/08 12:48:09;;;;;;;2.08;1.73;;;;;;;;;;5018966;28;20040;-79
2023/06/08 12:50:35;;;;;;;2.00;1.73;;;;;;;;;;5023053;28;20026;-80
2023/06/08 12:53:02;;;;;;;2.55;1.60;;;;;;;;;;5022405;28;20034;-80
2023/06/08 12:55:28;;;;;;;1.70;1.45;;;;;;;;;;5017993;28;20030;-80
2023/06/08 12:57:54;;;;;;;1.63;1.48;;;;;;;;;;5011060;28;20469;-79
2023/06/08 13:00:22;;;;;;;2.08;1.52;;;;;;;;;;5020182;28;20091;-79
2023/06/08 13:02:48;;;;;;;2.00;1.55;;;;;;;;;;5019796;28;20113;-81
2023/06/08 13:05:14;;;;;;;1.90;1.45;;;;;;;;;;5015219;28;20037;-80
2023/06/08 13:07:40;;;;;;;1.95;1.75;;;;;;;;;;5022123;28;20076;-80
2023/06/08 13:10:07;;;;;;;2.35;1.30;;;;;;;;;;5022599;28;20029;-80
2023/06/08 13:12:33;;;;;;;2.58;1.52;;;;;;;;;;5028077;28;20033;-78
2023/06/08 13:14:59;;;;;;;1.77;1.40;;;;;;;;;;5027105;28;20549;-91
2023/06/08 13:17:25;;;;;;;2.58;1.63;;;;;;;;;;5016000;28;20038;-82
2023/06/08 13:19:51;;;;;;;5.63;1.40;;;;;;;;;;4997600;28;20041;-79
2023/06/08 13:22:19;;;;;;;1.50;1.30;;;;;;;;;;5027694;28;20028;-82
2023/06/08 13:24:45;;;;;;;1.92;1.52;;;;;;;;;;5018138;28;20729;-80
2023/06/08 13:27:11;;;;;;;2.35;1.50;;;;;;;;;;5023740;28;20064;-80
2023/06/08 13:29:40;;;;;;;2.67;1.80;;;;;;;;;;5022789;28;20049;-81
2023/06/08 13:32:06;;;;;;;2.08;1.63;;;;;;;;;;5019205;28;20120;-79
2023/06/08 13:34:32;;;;;;;3.08;1.95;;;;;;;;;;5020205;28;20523;-81
2023/06/08 13:36:58;;;;;;;2.85;2.00;;;;;;;;;;5015888;28;20026;-83
2023/06/08 13:39:24;;;;;;;2.67;1.80;;;;;;;;;;5017513;28;20052;-81
2023/06/08 13:41:50;;;;;;;2.97;1.90;;;;;;;;;;5019496;28;20025;-82
2023/06/08 13:44:16;;;;;;;2.88;2.00;;;;;;;;;;5017855;28;20538;-82
2023/06/08 13:46:42;;;;;;;2.65;1.77;;;;;;;;;;5020700;28;20029;-83
2023/06/08 13:49:08;;;;;;;3.70;1.70;;;;;;;;;;5021987;28;20084;-83
2023/06/08 13:51:34;;;;;;;2.90;1.90;;;;;;;;;;5023547;28;20029;-82
2023/06/08 13:54:01;;;;;;;3.78;2.40;;;;;;;;;;5004865;28;20388;-82
2023/06/08 13:56:28;;;;;;;3.60;1.67;;;;;;;;;;5016239;28;20461;-80
2023/06/08 13:58:58;;;;;;;2.70;1.70;;;;;;;;;;5014753;28;20021;-76
2023/06/08 14:01:24;;;;;;;2.25;1.92;;;;;;;;;;5020726;28;20037;-81
2023/06/08 14:03:50;;;;;;;2.50;1.80;;;;;;;;;;5019602;28;20654;-80
2023/06/08 14:06:16;;;;;;;1.50;1.40;;;;;;;;;;5016996;28;20065;-80
2023/06/08 14:08:43;;;;;;;1.67;1.50;;;;;;;;;;5016186;28;20022;-83
2023/06/08 14:11:09;;;;;;;3.10;2.40;;;;;;;;;;5022447;28;20112;-80
2023/06/08 14:13:35;;;;;;;2.83;1.70;;;;;;;;;;5019350;28;20029;-79
2023/06/08 14:16:03;;;;;;;2.03;1.60;;;;;;;;;;5020704;28;20480;-80
2023/06/08 14:18:29;;;;;;;2.15;1.73;;;;;;;;;;5016261;28;20044;-84
2023/06/08 14:20:55;;;;;;;2.75;1.88;;;;;;;;;;5022344;28;20024;-82
2023/06/08 14:23:21;;;;;;;2.55;2.00;;;;;;;;;;5021679;28;20121;-82
2023/06/08 14:25:47;;;;;;;3.60;2.30;;;;;;;;;;5015435;28;20021;-82
2023/06/08 14:28:13;;;;;;;2.97;2.22;;;;;;;;;;5018223;28;20560;-82
2023/06/08 14:30:40;;;;;;;3.03;2.67;;;;;;;;;;5014791;28;20108;-82
2023/06/08 14:33:12;;;;;;;2.72;2.40;;;;;;;;;;5022866;28;20040;-79
2023/06/08 14:35:38;;;;;;;3.30;2.53;;;;;;;;;;5021512;28;20737;-83
2023/06/08 14:38:05;;;;;;;1.88;1.65;;;;;;;;;;5015195;28;20033;-83
2023/06/08 14:40:31;;;;;;;3.58;2.30;;;;;;;;;;5025843;28;20392;-79
2023/06/08 14:42:57;;;;;;;2.78;2.28;;;;;;;;;;5021274;28;20010;-82
2023/06/08 14:45:23;;;;;;;3.72;2.45;;;;;;;;;;5022732;28;20701;-82